Time;durP1;ratioP1;P1;durP2;ratioP2;P2;SDS_P1;SDS_P2;PMS_P1;PMS_P2;Temp;Humidity;BMP_temperature;BMP_pressure;BME280_temperature;BME280_humidity;BME280_pressure;Samples;Min_cycle;Max_cycle;Signal;HPM_P1;HPM_P2
2023/03/10 00:01:09;;;;;;;0.17;0.17;;;;;;;;;;5049320;28;20029;-75
2023/03/10 00:03:34;;;;;;;0.10;0.10;;;;;;;;;;5048096;28;20071;-72
2023/03/10 00:06:01;;;;;;;0.10;0.10;;;;;;;;;;5048382;28;20028;-73
2023/03/10 00:08:26;;;;;;;0.35;0.35;;;;;;;;;;5060222;28;20119;-72
2023/03/10 00:10:51;;;;;;;0.10;0.10;;;;;;;;;;5069330;28;20111;-74
2023/03/10 00:13:17;;;;;;;0.10;0.10;;;;;;;;;;5068119;28;20035;-71
2023/03/10 00:15:42;;;;;;;0.10;0.10;;;;;;;;;;5070192;28;20449;-71
2023/03/10 00:18:08;;;;;;;0.30;0.30;;;;;;;;;;5071789;28;20039;-71
2023/03/10 00:20:33;;;;;;;0.20;0.20;;;;;;;;;;5073042;28;20392;-71
2023/03/10 00:22:58;;;;;;;0.10;0.10;;;;;;;;;;5071755;28;20016;-71
2023/03/10 00:25:24;;;;;;;0.10;0.10;;;;;;;;;;5073170;28;20028;-71
2023/03/10 00:27:51;;;;;;;0.10;0.10;;;;;;;;;;5073069;28;20088;-72
2023/03/10 00:30:16;;;;;;;0.10;0.10;;;;;;;;;;5072886;28;20025;-72
2023/03/10 00:32:42;;;;;;;0.10;0.10;;;;;;;;;;5072750;28;20051;-73
2023/03/10 00:35:08;;;;;;;0.10;0.10;;;;;;;;;;5072943;28;20020;-72
2023/03/10 00:37:37;;;;;;;0.10;0.10;;;;;;;;;;5071467;28;20032;-72
2023/03/10 00:40:05;;;;;;;0.10;0.10;;;;;;;;;;5071667;28;20025;-72
2023/03/10 00:42:30;;;;;;;0.20;0.20;;;;;;;;;;5073032;28;20066;-72
2023/03/10 00:44:56;;;;;;;0.38;0.38;;;;;;;;;;5072868;28;20471;-72
2023/03/10 00:47:21;;;;;;;3.72;2.17;;;;;;;;;;5071497;28;20039;-72
2023/03/10 00:49:47;;;;;;;0.10;0.10;;;;;;;;;;5071274;28;19916;-70
2023/03/10 00:52:12;;;;;;;0.10;0.10;;;;;;;;;;5072611;28;20025;-72
2023/03/10 00:54:39;;;;;;;0.10;0.10;;;;;;;;;;5074275;28;20028;-71
2023/03/10 00:57:05;;;;;;;0.10;0.10;;;;;;;;;;5075480;28;20036;-73
2023/03/10 00:59:31;;;;;;;0.20;0.20;;;;;;;;;;5076520;28;20464;-74
2023/03/10 01:01:56;;;;;;;0.10;0.10;;;;;;;;;;5075284;28;20036;-74
2023/03/10 01:04:22;;;;;;;0.20;0.20;;;;;;;;;;5060179;28;20021;-74
2023/03/10 01:06:47;;;;;;;0.10;0.10;;;;;;;;;;5056073;28;20063;-72
2023/03/10 01:09:14;;;;;;;0.13;0.13;;;;;;;;;;5055200;28;20037;-73
2023/03/10 01:11:39;;;;;;;0.10;0.10;;;;;;;;;;5055279;28;20029;-73
2023/03/10 01:14:05;;;;;;;0.10;0.10;;;;;;;;;;5056345;28;20074;-73
2023/03/10 01:16:31;;;;;;;0.85;0.85;;;;;;;;;;5054959;28;20028;-73
2023/03/10 01:18:57;;;;;;;0.10;0.10;;;;;;;;;;5055902;28;20489;-72
2023/03/10 01:21:24;;;;;;;0.10;0.10;;;;;;;;;;5054632;28;20029;-74
2023/03/10 01:23:50;;;;;;;0.10;0.10;;;;;;;;;;5054616;28;20431;-73
2023/03/10 01:26:16;;;;;;;0.20;0.20;;;;;;;;;;5056070;28;20036;-73
2023/03/10 01:28:41;;;;;;;0.10;0.10;;;;;;;;;;5054789;28;20143;-73
2023/03/10 01:31:07;;;;;;;0.10;0.10;;;;;;;;;;5056022;28;20031;-73
2023/03/10 01:33:34;;;;;;;0.20;0.20;;;;;;;;;;5056057;28;20041;-73
2023/03/10 01:35:59;;;;;;;0.10;0.10;;;;;;;;;;5055654;28;20032;-75
2023/03/10 01:38:24;;;;;;;0.10;0.10;;;;;;;;;;5057487;28;20027;-73
2023/03/10 01:40:50;;;;;;;0.10;0.10;;;;;;;;;;5056230;28;20062;-74
2023/03/10 01:43:18;;;;;;;0.10;0.10;;;;;;;;;;5054591;28;20025;-74
2023/03/10 01:45:44;;;;;;;0.10;0.10;;;;;;;;;;5054372;28;20090;-74
2023/03/10 01:48:11;;;;;;;0.13;0.13;;;;;;;;;;5054408;28;20033;-73
2023/03/10 01:50:37;;;;;;;0.10;0.10;;;;;;;;;;5055557;28;20044;-74
2023/03/10 01:53:02;;;;;;;0.10;0.10;;;;;;;;;;5054743;28;20025;-73
2023/03/10 01:55:33;;;;;;;0.10;0.10;;;;;;;;;;5058136;28;20108;-74
2023/03/10 01:57:59;;;;;;;0.40;0.40;;;;;;;;;;5043057;28;20029;-74
2023/03/10 02:00:25;;;;;;;0.10;0.10;;;;;;;;;;5072059;28;20499;-73
2023/03/10 02:02:51;;;;;;;0.10;0.10;;;;;;;;;;5055660;28;20040;-73
2023/03/10 02:05:17;;;;;;;0.10;0.10;;;;;;;;;;5052495;28;20108;-74
2023/03/10 02:07:43;;;;;;;0.10;0.10;;;;;;;;;;5053965;28;20461;-74
2023/03/10 02:10:10;;;;;;;0.10;0.10;;;;;;;;;;5055334;28;20033;-73
2023/03/10 02:12:35;;;;;;;0.10;0.10;;;;;;;;;;5055377;28;20029;-73
2023/03/10 02:15:01;;;;;;;0.10;0.10;;;;;;;;;;5056220;28;20502;-73
2023/03/10 02:17:27;;;;;;;0.10;0.10;;;;;;;;;;5074728;28;20043;-73
2023/03/10 02:19:58;;;;;;;0.10;0.10;;;;;;;;;;5073513;28;20072;-73
2023/03/10 02:22:25;;;;;;;0.35;0.35;;;;;;;;;;5074874;28;20119;-72
2023/03/10 02:24:56;;;;;;;0.10;0.10;;;;;;;;;;5055961;28;20067;-73
2023/03/10 02:27:23;;;;;;;0.10;0.10;;;;;;;;;;5053856;28;20136;-73
2023/03/10 02:30:01;;;;;;;0.10;0.10;;;;;;;;;;5053392;28;20041;-73
2023/03/10 02:32:32;;;;;;;0.20;0.20;;;;;;;;;;5053435;28;20098;-72
2023/03/10 02:34:59;;;;;;;0.10;0.10;;;;;;;;;;5053584;28;20032;-74
2023/03/10 02:37:34;;;;;;;0.10;0.10;;;;;;;;;;5053431;28;20036;-74
2023/03/10 02:39:59;;;;;;;0.17;0.17;;;;;;;;;;5053355;28;20032;-74
2023/03/10 02:42:29;;;;;;;0.10;0.10;;;;;;;;;;5053385;28;20025;-74
2023/03/10 02:44:55;;;;;;;0.10;0.10;;;;;;;;;;5053609;28;20017;-74
2023/03/10 02:47:21;;;;;;;0.10;0.10;;;;;;;;;;5052961;28;20830;-73
2023/03/10 02:49:46;;;;;;;0.20;0.20;;;;;;;;;;5053116;28;20041;-73
2023/03/10 02:52:35;;;;;;;0.10;0.10;;;;;;;;;;5053131;28;20032;-73
2023/03/10 02:55:01;;;;;;;0.10;0.10;;;;;;;;;;5036802;28;20045;-73
2023/03/10 02:57:26;;;;;;;0.10;0.10;;;;;;;;;;5052948;28;20454;-73
2023/03/10 02:59:51;;;;;;;2.08;1.88;;;;;;;;;;5052652;28;20025;-73
2023/03/10 03:02:17;;;;;;;0.10;0.10;;;;;;;;;;5054258;28;20033;-73
2023/03/10 03:04:43;;;;;;;0.05;0.05;;;;;;;;;;5052873;28;20547;-74
2023/03/10 03:07:10;;;;;;;0.10;0.10;;;;;;;;;;5052826;28;20033;-73
2023/03/10 03:09:37;;;;;;;0.20;0.20;;;;;;;;;;5052171;28;20040;-74
2023/03/10 03:12:03;;;;;;;0.10;0.10;;;;;;;;;;5053414;28;20522;-73
2023/03/10 03:14:28;;;;;;;0.10;0.10;;;;;;;;;;5052482;28;20072;-73
2023/03/10 03:16:54;;;;;;;0.10;0.10;;;;;;;;;;5053490;28;20032;-72
2023/03/10 03:19:20;;;;;;;0.52;0.52;;;;;;;;;;5054035;28;20021;-73
2023/03/10 03:21:48;;;;;;;0.10;0.10;;;;;;;;;;5052510;28;20044;-73
2023/03/10 03:24:16;;;;;;;0.13;0.13;;;;;;;;;;5052550;28;20366;-72
2023/03/10 03:26:42;;;;;;;0.00;0.00;;;;;;;;;;5036558;28;20029;-72
2023/03/10 03:29:14;;;;;;;0.10;0.10;;;;;;;;;;5053412;28;20037;-72
2023/03/10 03:31:40;;;;;;;0.10;0.10;;;;;;;;;;5052762;28;20030;-72
2023/03/10 03:34:10;;;;;;;2.33;2.22;;;;;;;;;;5052365;28;20413;-72
2023/03/10 03:36:36;;;;;;;0.10;0.10;;;;;;;;;;5052341;28;20373;-72
2023/03/10 03:39:05;;;;;;;0.20;0.20;;;;;;;;;;5052585;28;20032;-72
2023/03/10 03:41:32;;;;;;;0.10;0.10;;;;;;;;;;5052325;28;20029;-73
2023/03/10 03:43:57;;;;;;;0.10;0.10;;;;;;;;;;5035763;28;20028;-72
2023/03/10 03:46:23;;;;;;;0.10;0.10;;;;;;;;;;5053449;28;20392;-72
2023/03/10 03:48:48;;;;;;;0.10;0.10;;;;;;;;;;5052028;28;20086;-72
2023/03/10 03:51:14;;;;;;;2.67;2.55;;;;;;;;;;5053399;28;20028;-72
2023/03/10 03:53:41;;;;;;;0.10;0.10;;;;;;;;;;5051673;28;20206;-73
2023/03/10 03:56:07;;;;;;;0.10;0.10;;;;;;;;;;5052194;28;20056;-73
2023/03/10 03:58:35;;;;;;;0.10;0.10;;;;;;;;;;5052215;28;20025;-72
2023/03/10 04:01:01;;;;;;;1.40;0.22;;;;;;;;;;5052021;28;20747;-72
2023/03/10 04:03:31;;;;;;;0.10;0.10;;;;;;;;;;5047941;28;20052;-71
2023/03/10 04:05:57;;;;;;;0.10;0.10;;;;;;;;;;5031594;28;20114;-71
2023/03/10 04:08:22;;;;;;;0.10;0.10;;;;;;;;;;5049471;28;20496;-71
2023/03/10 04:10:52;;;;;;;0.10;0.10;;;;;;;;;;5047683;28;20029;-71
2023/03/10 04:13:20;;;;;;;0.10;0.10;;;;;;;;;;5047842;28;20387;-71
2023/03/10 04:15:45;;;;;;;0.10;0.10;;;;;;;;;;5048225;28;20067;-73
2023/03/10 04:18:11;;;;;;;0.10;0.10;;;;;;;;;;5048646;28;20029;-71
2023/03/10 04:20:37;;;;;;;0.10;0.10;;;;;;;;;;5049323;28;20025;-72
2023/03/10 04:23:03;;;;;;;0.10;0.10;;;;;;;;;;5047658;28;20095;-72
2023/03/10 04:25:32;;;;;;;0.10;0.10;;;;;;;;;;5047739;28;20061;-73
2023/03/10 04:27:58;;;;;;;0.10;0.10;;;;;;;;;;5048192;28;20129;-73
2023/03/10 04:30:28;;;;;;;0.85;0.85;;;;;;;;;;5051930;28;20032;-73
2023/03/10 04:32:58;;;;;;;0.17;0.17;;;;;;;;;;5051626;28;20068;-73
2023/03/10 04:35:23;;;;;;;;;;;;;;;;;;5052204;28;20031;-73
2023/03/10 04:37:49;;;;;;;0.20;0.20;;;;;;;;;;5051518;28;19909;-74
2023/03/10 04:40:14;;;;;;;1.85;1.38;;;;;;;;;;5053133;28;20033;-74
2023/03/10 04:42:41;;;;;;;0.10;0.10;;;;;;;;;;5052020;28;20029;-72
2023/03/10 04:45:07;;;;;;;0.10;0.10;;;;;;;;;;5059191;28;20021;-73
2023/03/10 04:47:33;;;;;;;0.25;0.25;;;;;;;;;;5071630;28;20029;-74
2023/03/10 04:49:59;;;;;;;0.10;0.10;;;;;;;;;;5071680;28;20502;-72
2023/03/10 04:52:24;;;;;;;0.10;0.10;;;;;;;;;;5071787;28;20028;-72
2023/03/10 04:54:50;;;;;;;0.20;0.20;;;;;;;;;;5061755;28;20116;-72
2023/03/10 04:57:16;;;;;;;0.20;0.20;;;;;;;;;;5034855;28;20033;-73
2023/03/10 04:59:42;;;;;;;0.10;0.10;;;;;;;;;;5051800;28;20477;-74
2023/03/10 05:02:08;;;;;;;1.55;0.90;;;;;;;;;;5051783;28;20112;-72
2023/03/10 05:04:34;;;;;;;0.10;0.10;;;;;;;;;;5051382;28;20362;-72
2023/03/10 05:07:00;;;;;;;0.10;0.10;;;;;;;;;;5052643;28;20036;-72
2023/03/10 05:09:29;;;;;;;;;;;;;;;;;;5035224;28;20111;-70
2023/03/10 05:11:55;;;;;;;0.10;0.10;;;;;;;;;;5035465;28;20436;-70
2023/03/10 05:14:21;;;;;;;0.10;0.10;;;;;;;;;;5050773;28;20039;-70
2023/03/10 05:16:47;;;;;;;0.10;0.10;;;;;;;;;;5051025;28;20115;-71
2023/03/10 05:19:13;;;;;;;0.20;0.20;;;;;;;;;;5050728;28;20113;-75
2023/03/10 05:21:38;;;;;;;0.10;0.10;;;;;;;;;;5051005;28;20059;-71
2023/03/10 05:24:04;;;;;;;0.10;0.10;;;;;;;;;;5051153;28;20510;-74
2023/03/10 05:26:29;;;;;;;0.10;0.10;;;;;;;;;;5050983;28;20029;-71
2023/03/10 05:28:56;;;;;;;0.10;0.10;;;;;;;;;;5050619;28;20127;-74
2023/03/10 05:31:33;;;;;;;0.13;0.13;;;;;;;;;;5035385;28;20037;-71
2023/03/10 05:34:05;;;;;;;0.10;0.10;;;;;;;;;;5050629;28;20450;-71
2023/03/10 05:36:31;;;;;;;0.20;0.20;;;;;;;;;;5050502;28;20059;-71
2023/03/10 05:38:56;;;;;;;0.25;0.25;;;;;;;;;;5033551;28;20032;-72
2023/03/10 05:41:22;;;;;;;1.13;1.13;;;;;;;;;;5051461;28;20033;-72
2023/03/10 05:43:51;;;;;;;0.10;0.10;;;;;;;;;;5050333;28;20029;-72
2023/03/10 05:46:18;;;;;;;0.20;0.20;;;;;;;;;;5051673;28;20152;-73
2023/03/10 05:48:49;;;;;;;0.10;0.10;;;;;;;;;;5034106;28;20159;-75
2023/03/10 05:51:15;;;;;;;0.10;0.10;;;;;;;;;;5051243;28;20549;-73
2023/03/10 05:53:40;;;;;;;0.10;0.10;;;;;;;;;;5034300;28;20050;-72
2023/03/10 05:56:14;;;;;;;0.30;0.30;;;;;;;;;;5050420;28;20504;-74
2023/03/10 05:58:42;;;;;;;0.10;0.10;;;;;;;;;;5050093;28;20037;-72
2023/03/10 06:01:08;;;;;;;0.20;0.20;;;;;;;;;;5050634;28;20467;-73
2023/03/10 06:03:34;;;;;;;0.10;0.10;;;;;;;;;;5051262;28;20107;-72
2023/03/10 06:05:59;;;;;;;10.32;9.75;;;;;;;;;;5049336;28;20174;-74
2023/03/10 06:08:26;;;;;;;0.10;0.10;;;;;;;;;;5033743;28;20136;-73
2023/03/10 06:10:53;;;;;;;0.10;0.10;;;;;;;;;;5049523;28;20027;-74
2023/03/10 06:13:19;;;;;;;0.10;0.10;;;;;;;;;;5032726;28;20028;-72
2023/03/10 06:15:52;;;;;;;0.10;0.10;;;;;;;;;;5049724;28;20373;-73
2023/03/10 06:18:18;;;;;;;0.25;0.25;;;;;;;;;;5050886;28;20029;-73
2023/03/10 06:20:44;;;;;;;0.10;0.10;;;;;;;;;;5051337;28;20013;-74
2023/03/10 06:23:10;;;;;;;0.10;0.10;;;;;;;;;;5052040;28;20033;-75
2023/03/10 06:25:35;;;;;;;0.10;0.10;;;;;;;;;;5058603;28;20033;-73
2023/03/10 06:28:01;;;;;;;0.00;0.00;;;;;;;;;;5060589;28;20067;-73
2023/03/10 06:30:26;;;;;;;0.10;0.10;;;;;;;;;;5054528;28;20029;-73
2023/03/10 06:32:52;;;;;;;7.85;7.22;;;;;;;;;;5056040;28;20055;-75
2023/03/10 06:35:17;;;;;;;0.10;0.10;;;;;;;;;;5048692;28;20036;-74
2023/03/10 06:37:43;;;;;;;0.15;0.15;;;;;;;;;;5054557;28;20434;-74
2023/03/10 06:40:11;;;;;;;0.10;0.10;;;;;;;;;;5062064;28;20038;-74
2023/03/10 06:42:37;;;;;;;0.10;0.10;;;;;;;;;;5051283;28;20052;-73
2023/03/10 06:45:03;;;;;;;0.52;0.52;;;;;;;;;;5049293;28;20075;-73
2023/03/10 06:47:28;;;;;;;0.20;0.20;;;;;;;;;;5059747;28;20028;-74
2023/03/10 06:49:54;;;;;;;0.20;0.20;;;;;;;;;;5057218;28;20043;-73
2023/03/10 06:52:19;;;;;;;0.10;0.10;;;;;;;;;;5048546;28;20438;-73
2023/03/10 06:54:45;;;;;;;0.10;0.10;;;;;;;;;;5050306;28;20385;-73
2023/03/10 06:57:10;;;;;;;0.28;0.28;;;;;;;;;;5054733;28;20056;-73
2023/03/10 06:59:35;;;;;;;0.20;0.20;;;;;;;;;;5067354;28;20039;-74
2023/03/10 07:02:01;;;;;;;0.30;0.30;;;;;;;;;;5067243;28;20020;-74
2023/03/10 07:04:26;;;;;;;0.38;0.38;;;;;;;;;;5070146;28;20885;-72
2023/03/10 07:06:52;;;;;;;0.10;0.10;;;;;;;;;;5068755;28;20028;-72
2023/03/10 07:09:17;;;;;;;0.17;0.17;;;;;;;;;;5069757;28;20036;-71
2023/03/10 07:11:43;;;;;;;0.10;0.10;;;;;;;;;;5070391;28;20044;-75
2023/03/10 07:14:08;;;;;;;0.10;0.10;;;;;;;;;;5069323;28;20047;-76
2023/03/10 07:16:33;;;;;;;0.10;0.10;;;;;;;;;;5070286;28;20023;-73
2023/03/10 07:18:59;;;;;;;0.10;0.10;;;;;;;;;;5068116;28;20028;-73
2023/03/10 07:21:24;;;;;;;0.10;0.10;;;;;;;;;;5070176;28;20017;-72
2023/03/10 07:23:50;;;;;;;0.10;0.10;;;;;;;;;;5068605;28;20353;-72
2023/03/10 07:26:17;;;;;;;0.20;0.20;;;;;;;;;;5066930;28;20033;-73
2023/03/10 07:28:43;;;;;;;0.10;0.10;;;;;;;;;;5073932;28;20036;-73
2023/03/10 07:31:10;;;;;;;0.30;0.30;;;;;;;;;;5048857;28;20079;-74
2023/03/10 07:33:35;;;;;;;0.10;0.10;;;;;;;;;;5048251;28;20047;-74
2023/03/10 07:36:07;;;;;;;0.10;0.10;;;;;;;;;;5049682;28;20108;-75
2023/03/10 07:38:33;;;;;;;3.85;0.90;;;;;;;;;;5049805;28;20055;-74
2023/03/10 07:40:59;;;;;;;0.85;0.50;;;;;;;;;;5049572;28;20037;-73
2023/03/10 07:43:24;;;;;;;0.20;0.20;;;;;;;;;;5048335;28;20079;-73
2023/03/10 07:45:50;;;;;;;0.47;0.30;;;;;;;;;;5049490;28;20029;-74
2023/03/10 07:48:15;;;;;;;0.10;0.10;;;;;;;;;;5049659;28;20056;-73
2023/03/10 07:50:40;;;;;;;2.38;1.02;;;;;;;;;;5049530;28;20044;-74
2023/03/10 07:53:06;;;;;;;0.10;0.10;;;;;;;;;;5049421;28;20040;-75
2023/03/10 07:55:31;;;;;;;0.10;0.10;;;;;;;;;;5049137;28;20290;-74
2023/03/10 07:57:59;;;;;;;0.10;0.10;;;;;;;;;;5049652;28;20029;-75
2023/03/10 08:00:25;;;;;;;0.20;0.20;;;;;;;;;;5049456;28;20122;-73
2023/03/10 08:02:50;;;;;;;0.63;0.55;;;;;;;;;;5049247;28;20060;-73
2023/03/10 08:05:17;;;;;;;0.10;0.10;;;;;;;;;;5049347;28;20021;-74
2023/03/10 08:07:42;;;;;;;1.55;1.00;;;;;;;;;;5049944;28;20078;-73
2023/03/10 08:10:08;;;;;;;2.67;1.50;;;;;;;;;;5049090;28;20089;-74
2023/03/10 08:12:34;;;;;;;0.50;0.50;;;;;;;;;;5051821;28;20380;-68
2023/03/10 08:14:59;;;;;;;0.38;0.38;;;;;;;;;;5048178;28;20037;-69
2023/03/10 08:17:29;;;;;;;0.20;0.20;;;;;;;;;;5048242;28;20029;-69
2023/03/10 08:19:58;;;;;;;1.15;0.95;;;;;;;;;;5047816;28;20048;-67
2023/03/10 08:22:23;;;;;;;0.40;0.40;;;;;;;;;;5054331;28;20025;-69
2023/03/10 08:24:49;;;;;;;1.27;1.17;;;;;;;;;;5054266;28;20325;-67
2023/03/10 08:27:15;;;;;;;31.15;5.32;;;;;;;;;;5049140;28;20023;-67
2023/03/10 08:29:40;;;;;;;0.65;0.65;;;;;;;;;;5057029;28;20451;-69
2023/03/10 08:32:06;;;;;;;0.38;0.38;;;;;;;;;;5053397;28;20082;-68
2023/03/10 08:34:32;;;;;;;8.77;3.03;;;;;;;;;;5049103;28;20031;-69
2023/03/10 08:36:59;;;;;;;0.28;0.28;;;;;;;;;;5053130;28;20095;-69
2023/03/10 08:39:25;;;;;;;0.50;0.50;;;;;;;;;;5047959;28;20188;-68
2023/03/10 08:41:50;;;;;;;2.10;0.55;;;;;;;;;;5059037;28;20025;-68
2023/03/10 08:44:16;;;;;;;0.47;0.47;;;;;;;;;;5049411;28;20071;-67
2023/03/10 08:46:43;;;;;;;3.22;1.63;;;;;;;;;;5053620;28;20028;-67
2023/03/10 08:49:09;;;;;;;1.48;0.80;;;;;;;;;;5055546;28;20479;-67
2023/03/10 08:51:35;;;;;;;1.80;1.50;;;;;;;;;;5056201;28;20477;-67
2023/03/10 08:54:01;;;;;;;2.25;0.20;;;;;;;;;;5048452;28;20068;-67
2023/03/10 08:56:27;;;;;;;1.27;1.00;;;;;;;;;;5049106;28;20033;-67
2023/03/10 08:58:57;;;;;;;0.32;0.10;;;;;;;;;;5049348;28;20028;-69
2023/03/10 09:01:24;;;;;;;0.10;0.10;;;;;;;;;;5047405;28;20036;-67
2023/03/10 09:03:50;;;;;;;0.43;0.35;;;;;;;;;;5047465;28;20029;-70
2023/03/10 09:06:15;;;;;;;0.17;0.17;;;;;;;;;;5052733;28;20522;-69
2023/03/10 09:08:41;;;;;;;0.65;0.65;;;;;;;;;;5052613;28;20086;-68
2023/03/10 09:11:06;;;;;;;0.10;0.10;;;;;;;;;;5056737;28;20029;-67
2023/03/10 09:13:32;;;;;;;3.72;0.85;;;;;;;;;;5048524;28;20443;-68
2023/03/10 09:15:57;;;;;;;4.90;2.40;;;;;;;;;;5050552;28;20416;-68
2023/03/10 09:18:23;;;;;;;0.20;0.20;;;;;;;;;;5060436;28;20029;-71
2023/03/10 09:20:48;;;;;;;0.30;0.30;;;;;;;;;;5072610;28;20017;-71
2023/03/10 09:23:15;;;;;;;1.27;0.52;;;;;;;;;;5060180;28;20287;-71
2023/03/10 09:25:40;;;;;;;0.10;0.10;;;;;;;;;;5053013;28;20393;-73
2023/03/10 09:28:06;;;;;;;1.13;0.80;;;;;;;;;;5054161;28;20036;-72
2023/03/10 09:30:36;;;;;;;3.35;0.55;;;;;;;;;;5054968;28;20078;-70
2023/03/10 09:33:02;;;;;;;0.80;0.57;;;;;;;;;;5070656;28;20044;-71
2023/03/10 09:35:27;;;;;;;1.17;1.08;;;;;;;;;;5070372;28;20056;-72
2023/03/10 09:37:53;;;;;;;0.20;0.20;;;;;;;;;;5069890;28;20459;-69
2023/03/10 09:40:23;;;;;;;0.55;0.30;;;;;;;;;;5072010;28;20422;-70
2023/03/10 09:43:04;;;;;;;1.75;0.70;;;;;;;;;;5053885;28;20044;-71
2023/03/10 09:45:39;;;;;;;0.55;0.32;;;;;;;;;;5051882;28;20031;-71
2023/03/10 09:48:04;;;;;;;0.90;0.30;;;;;;;;;;5069720;28;20211;-72
2023/03/10 09:50:42;;;;;;;12.18;1.00;;;;;;;;;;5070007;28;20039;-73
2023/03/10 09:53:26;;;;;;;3.17;0.95;;;;;;;;;;5070132;28;20038;-74
2023/03/10 09:55:52;;;;;;;5.40;2.63;;;;;;;;;;5070191;28;20028;-70
2023/03/10 09:58:35;;;;;;;0.10;0.10;;;;;;;;;;5069766;28;20487;-71
2023/03/10 10:01:02;;;;;;;0.10;0.10;;;;;;;;;;5068483;28;20550;-71
2023/03/10 10:03:44;;;;;;;0.20;0.20;;;;;;;;;;5068139;28;20371;-72
2023/03/10 10:06:15;;;;;;;6.13;1.50;;;;;;;;;;5067971;28;20503;-69
2023/03/10 10:08:43;;;;;;;0.98;0.30;;;;;;;;;;5069416;28;20551;-71
2023/03/10 10:11:13;;;;;;;0.70;0.55;;;;;;;;;;5051376;28;20496;-72
2023/03/10 10:13:39;;;;;;;0.10;0.10;;;;;;;;;;5052335;28;20548;-69
2023/03/10 10:16:07;;;;;;;0.32;0.28;;;;;;;;;;5071336;28;20119;-70
2023/03/10 10:18:44;;;;;;;0.30;0.30;;;;;;;;;;5070925;28;20525;-70
2023/03/10 10:21:12;;;;;;;1.35;0.88;;;;;;;;;;5069932;28;20473;-71
2023/03/10 10:23:41;;;;;;;1.13;0.50;;;;;;;;;;5069925;28;20025;-71
2023/03/10 10:26:09;;;;;;;1.40;1.20;;;;;;;;;;5070036;28;20028;-70
2023/03/10 10:28:40;;;;;;;0.22;0.22;;;;;;;;;;5053116;28;20031;-71
2023/03/10 10:31:16;;;;;;;0.50;0.50;;;;;;;;;;5053029;28;20040;-71
2023/03/10 10:33:52;;;;;;;0.10;0.10;;;;;;;;;;5071005;28;20064;-72
2023/03/10 10:36:18;;;;;;;1.30;0.55;;;;;;;;;;5070958;28;20035;-70
2023/03/10 10:38:47;;;;;;;0.93;0.60;;;;;;;;;;5070985;28;20024;-71
2023/03/10 10:41:18;;;;;;;2.10;0.88;;;;;;;;;;5070410;28;20067;-74
2023/03/10 10:43:44;;;;;;;6.80;1.55;;;;;;;;;;5070659;28;20049;-71
2023/03/10 10:46:11;;;;;;;1.02;0.70;;;;;;;;;;5052604;28;20028;-72
2023/03/10 10:48:37;;;;;;;0.20;0.20;;;;;;;;;;5070660;28;20591;-70
2023/03/10 10:51:03;;;;;;;3.15;1.65;;;;;;;;;;5070604;28;20127;-73
2023/03/10 10:53:33;;;;;;;2.75;0.75;;;;;;;;;;5052206;28;20112;-70
2023/03/10 10:55:59;;;;;;;2.70;1.35;;;;;;;;;;5070285;28;20032;-73
2023/03/10 10:58:35;;;;;;;3.15;1.40;;;;;;;;;;5069027;28;20499;-71
2023/03/10 11:01:05;;;;;;;0.52;0.52;;;;;;;;;;5070246;28;20190;-70
2023/03/10 11:03:31;;;;;;;5.25;2.10;;;;;;;;;;5068745;28;20056;-70
2023/03/10 11:05:56;;;;;;;0.40;0.30;;;;;;;;;;5070174;28;20447;-70
2023/03/10 11:08:37;;;;;;;3.45;2.10;;;;;;;;;;5070291;28;20028;-70
2023/03/10 11:11:22;;;;;;;0.35;0.32;;;;;;;;;;5052307;28;20040;-71
2023/03/10 11:14:13;;;;;;;0.90;0.50;;;;;;;;;;5068891;28;20402;-71
2023/03/10 11:16:42;;;;;;;0.95;0.80;;;;;;;;;;5069009;28;20041;-71
2023/03/10 11:19:20;;;;;;;0.10;0.10;;;;;;;;;;5070010;28;20085;-71
2023/03/10 11:21:49;;;;;;;1.35;1.15;;;;;;;;;;5069916;28;20476;-71
2023/03/10 11:24:15;;;;;;;10.00;3.20;;;;;;;;;;5052020;28;20027;-71
2023/03/10 11:26:55;;;;;;;3.17;1.05;;;;;;;;;;5068831;28;20032;-71
2023/03/10 11:29:21;;;;;;;6.95;1.75;;;;;;;;;;5069717;28;20028;-71
2023/03/10 11:31:49;;;;;;;0.20;0.20;;;;;;;;;;5069682;28;20055;-70
2023/03/10 11:34:21;;;;;;;14.23;2.75;;;;;;;;;;5069591;28;20106;-71
2023/03/10 11:36:49;;;;;;;0.60;0.22;;;;;;;;;;5069495;28;20043;-71
2023/03/10 11:39:18;;;;;;;16.35;3.10;;;;;;;;;;5069633;28;20074;-75
2023/03/10 11:41:47;;;;;;;11.07;3.47;;;;;;;;;;5069843;28;20111;-71
2023/03/10 11:44:18;;;;;;;11.40;3.33;;;;;;;;;;5069582;28;20025;-71
2023/03/10 11:46:56;;;;;;;26.88;4.28;;;;;;;;;;5069511;28;20120;-71
2023/03/10 11:49:26;;;;;;;16.30;3.00;;;;;;;;;;5069092;28;20036;-71
2023/03/10 11:52:06;;;;;;;16.05;4.53;;;;;;;;;;5069282;28;20032;-72
2023/03/10 11:54:40;;;;;;;26.73;6.60;;;;;;;;;;5051548;28;20395;-70
2023/03/10 11:57:11;;;;;;;5.82;2.17;;;;;;;;;;5068208;28;20035;-70
2023/03/10 11:59:41;;;;;;;6.40;2.83;;;;;;;;;;5068477;28;20052;-70
2023/03/10 12:02:09;;;;;;;12.70;3.95;;;;;;;;;;5069565;28;20502;-71
2023/03/10 12:04:38;;;;;;;7.32;2.85;;;;;;;;;;5069476;28;20380;-74
2023/03/10 12:07:20;;;;;;;2.08;0.80;;;;;;;;;;5069479;28;20067;-71
2023/03/10 12:09:50;;;;;;;11.10;1.75;;;;;;;;;;5069406;28;20032;-71
2023/03/10 12:12:19;;;;;;;19.23;3.78;;;;;;;;;;5069381;28;20071;-71
2023/03/10 12:14:45;;;;;;;14.40;3.90;;;;;;;;;;5069120;28;20111;-71
2023/03/10 12:17:12;;;;;;;11.20;2.83;;;;;;;;;;5051021;28;20050;-74
2023/03/10 12:19:56;;;;;;;15.30;3.72;;;;;;;;;;5068639;28;20426;-74
2023/03/10 12:22:34;;;;;;;13.18;2.28;;;;;;;;;;5068222;28;20075;-70
2023/03/10 12:25:00;;;;;;;10.02;1.58;;;;;;;;;;5067852;28;20748;-76
2023/03/10 12:27:25;;;;;;;4.63;1.33;;;;;;;;;;5068889;28;20067;-71
2023/03/10 12:29:51;;;;;;;13.13;2.70;;;;;;;;;;5068889;28;20484;-70
2023/03/10 12:32:39;;;;;;;11.35;2.60;;;;;;;;;;5069041;28;20288;-71
2023/03/10 12:35:20;;;;;;;8.70;2.70;;;;;;;;;;5067972;28;20033;-75
2023/03/10 12:37:46;;;;;;;5.80;1.65;;;;;;;;;;5069028;28;20154;-70
2023/03/10 12:40:30;;;;;;;3.97;2.47;;;;;;;;;;5069083;28;20099;-70
2023/03/10 12:42:55;;;;;;;5.45;2.50;;;;;;;;;;5067932;28;20028;-74
2023/03/10 12:45:24;;;;;;;2.55;0.82;;;;;;;;;;5050715;28;20027;-70
2023/03/10 12:48:01;;;;;;;3.63;0.60;;;;;;;;;;5068171;28;20033;-70
2023/03/10 12:50:51;;;;;;;14.25;3.53;;;;;;;;;;5053782;28;20289;-71
2023/03/10 12:53:37;;;;;;;10.40;4.35;;;;;;;;;;5054778;28;20108;-71
2023/03/10 12:56:11;;;;;;;9.57;2.83;;;;;;;;;;5073018;28;20028;-70
2023/03/10 12:58:38;;;;;;;4.97;1.63;;;;;;;;;;5072769;28;20085;-70
2023/03/10 13:01:06;;;;;;;14.80;3.03;;;;;;;;;;5072541;28;20074;-71
2023/03/10 13:03:36;;;;;;;16.02;3.15;;;;;;;;;;5072629;28;20563;-71
2023/03/10 13:06:19;;;;;;;5.32;1.30;;;;;;;;;;5054128;28;20032;-72
2023/03/10 13:08:46;;;;;;;21.20;4.07;;;;;;;;;;5060473;28;20037;-70
2023/03/10 13:11:30;;;;;;;12.63;3.67;;;;;;;;;;5052116;28;20071;-73
2023/03/10 13:14:01;;;;;;;9.23;2.13;;;;;;;;;;5052238;28;20036;-70
2023/03/10 13:16:26;;;;;;;6.03;1.52;;;;;;;;;;5034538;28;20033;-69
2023/03/10 13:18:52;;;;;;;26.73;4.15;;;;;;;;;;5052176;28;20492;-70
2023/03/10 13:21:26;;;;;;;1.67;0.60;;;;;;;;;;5052205;28;20861;-69
2023/03/10 13:23:52;;;;;;;0.93;0.73;;;;;;;;;;5052259;28;20021;-71
2023/03/10 13:26:17;;;;;;;3.53;1.63;;;;;;;;;;5051176;28;20373;-70
2023/03/10 13:28:50;;;;;;;8.43;2.95;;;;;;;;;;5051950;28;20037;-71
2023/03/10 13:31:22;;;;;;;3.42;0.98;;;;;;;;;;5050481;28;20041;-70
2023/03/10 13:33:48;;;;;;;5.47;2.45;;;;;;;;;;5034059;28;20063;-70
2023/03/10 13:36:26;;;;;;;16.45;3.05;;;;;;;;;;5050741;28;20074;-70
2023/03/10 13:38:52;;;;;;;3.15;1.75;;;;;;;;;;5052457;28;20511;-70
2023/03/10 13:41:17;;;;;;;26.60;4.57;;;;;;;;;;5051991;28;20061;-70
2023/03/10 13:43:49;;;;;;;12.38;3.33;;;;;;;;;;5050429;28;20033;-70
2023/03/10 13:46:16;;;;;;;0.88;0.45;;;;;;;;;;5034135;28;20444;-70
2023/03/10 13:48:42;;;;;;;17.05;2.60;;;;;;;;;;5033887;28;20358;-70
2023/03/10 13:51:38;;;;;;;19.88;3.85;;;;;;;;;;5034051;28;20040;-72
2023/03/10 13:54:29;;;;;;;20.15;5.50;;;;;;;;;;5055321;28;20480;-71
2023/03/10 13:57:02;;;;;;;26.52;4.60;;;;;;;;;;5052543;28;20044;-70
2023/03/10 13:59:30;;;;;;;14.75;2.95;;;;;;;;;;5051330;28;20480;-69
2023/03/10 14:01:57;;;;;;;13.80;1.95;;;;;;;;;;5033492;28;20036;-70
2023/03/10 14:04:43;;;;;;;2.97;1.30;;;;;;;;;;5051226;28;20111;-71
2023/03/10 14:07:11;;;;;;;12.05;2.15;;;;;;;;;;5051960;28;20033;-69
2023/03/10 14:09:36;;;;;;;12.40;1.65;;;;;;;;;;5049738;28;20048;-75
2023/03/10 14:12:02;;;;;;;2.30;0.85;;;;;;;;;;5051433;28;20033;-70
2023/03/10 14:14:29;;;;;;;2.60;0.57;;;;;;;;;;5051228;28;20025;-70
2023/03/10 14:16:56;;;;;;;7.00;1.55;;;;;;;;;;5051344;28;20094;-70
2023/03/10 14:19:40;;;;;;;0.60;0.30;;;;;;;;;;5049420;28;20045;-71
2023/03/10 14:22:24;;;;;;;0.88;0.55;;;;;;;;;;5051134;28;20078;-72
2023/03/10 14:24:49;;;;;;;14.65;1.75;;;;;;;;;;5050766;28;20461;-70
2023/03/10 14:27:15;;;;;;;1.77;0.75;;;;;;;;;;5051238;28;20039;-70
2023/03/10 14:29:47;;;;;;;6.10;1.67;;;;;;;;;;5050543;28;20067;-70
2023/03/10 14:32:13;;;;;;;12.48;2.40;;;;;;;;;;5051151;28;20036;-70
2023/03/10 14:34:38;;;;;;;18.33;2.78;;;;;;;;;;5051018;28;20029;-70
2023/03/10 14:37:04;;;;;;;24.65;4.28;;;;;;;;;;5051233;28;20061;-73
2023/03/10 14:39:29;;;;;;;1.55;0.60;;;;;;;;;;5050400;28;20025;-70
2023/03/10 14:41:55;;;;;;;9.63;1.85;;;;;;;;;;5050844;28;20471;-70
2023/03/10 14:44:20;;;;;;;0.43;0.43;;;;;;;;;;5050712;28;20039;-70
2023/03/10 14:46:51;;;;;;;14.68;2.50;;;;;;;;;;5050510;28;20040;-69
2023/03/10 14:49:19;;;;;;;6.55;1.98;;;;;;;;;;5050386;28;20047;-69